西安 の空港の天気 - METARとTAF

西安咸陽国際空港 ( ZLXY / XIY ) - 中華人民共和国 陝西省西安市
飛行場実況気象(Metar)
観測時間03/29 05:00 CST (03/28 21:00 UTC)
風向・風速北東 5m/s
視程6000m
天気現象
なし
気温8℃
湿度66%
気圧1017hPa
METARZLXY 282100Z 05005MPS 010V070 6000 NSC 08/02 Q1017 NOSIG
過去の天気等 Google飛行場航空写真 Wunderground天気予報

過去48時間のMETAR

飛行場予報(TAF)
発表時間: 3/28 23:17 CST (3/28 15:17 UTC)
予報対象時間: 29日2時 CST ~ 30日2時 CST
風向・風速東北東 3m/s
視程4,000m
天気現象煙霧
なし
TAF ZLXY 281517Z 2818/2918 06003MPS 4000 HZ NSC TX19/2908Z TN04/2822Z